Portada
METAR-TAF:

METAR-TAF

Aeroports :

Uden, Països Baixos

latitud: 51-39N, longitud: 005-42E, altitud: 22 m

Observació

L'informe es va fer fa 43 minuts, a les 13:25 UTC
Vent 18 kt del Oest/Sud-Oest, variant entre Sud/Sud-Oest i Oest
Temperatura 16°C
Humitat 42%
Pressió 999 hPa
Visibilitat 10 km o més
Escasses núvols a una alçada de 5600 ft
Cel ennuvolat a una alçada de 6400 ft
Cel ennuvolat a una alçada de 7200 ft

METAR: EHVK 061325Z AUTO 24018KT 210V270 9999 FEW056 BKN064 BKN072 16/03 Q0999 BLU

Hora: 16:08 (14:08 UTC)

Pronòstic

L'informe es va fer fa 2 hores i 4 minuts, a les 12:04 UTC
Pronòstic vàlid del 06 a les 13 UTC al 07 a les 01 UTC
Vent 15 kt del Oest/Sud-Oest amb ràfegues de 25 kt
Visibilitat 10 km o més
Núvols disperses a una alçada de 3000 ft

TAF: EHVK 061204Z 0613/0701 24015G25KT 9999 SCT030

Observacions i pronòstics meteorològics de més de 4000 aeroports (METAR i TAF).

Les estacions disponibles són els punts grocs i vermells al mapa.

Posi el ratolí al punt desitjat per veure el nom de l'estació.

Feu clic per veure les observacions i els pronòstics meteorològics.

Per canviar el mapa: feu clic els botons verds amb una creu de color negre per apropar; al botó verd amb un guió per allunyar la imatge; o en les fletxes verdes per a mapes adjacents.


METAR-TAF: